Time;durP1;ratioP1;P1;durP2;ratioP2;P2;SDS_P1;SDS_P2;PMS_P1;PMS_P2;Temp;Humidity;BMP_temperature;BMP_pressure;BME280_temperature;BME280_humidity;BME280_pressure;Samples;Min_cycle;Max_cycle;Signal;HPM_P1;HPM_P2
2021/12/21 00:00:51;;;;;;;;;12.00;10.00;;;;;1.69;64.55;99927.88;4970309;28;8870;-70
2021/12/21 00:03:20;;;;;;;;;10.80;10.80;;;;;1.39;65.52;99931.75;4988291;28;8956;-71
2021/12/21 00:05:50;;;;;;;;;9.40;8.80;;;;;1.54;65.37;99930.69;4957150;28;8910;-70
2021/12/21 00:08:19;;;;;;;;;9.40;9.40;;;;;1.55;65.06;99935.03;4989639;28;8961;-73
2021/12/21 00:11:08;;;;;;;;;13.00;13.00;;;;;1.77;64.80;99932.47;5006101;28;8914;-71
2021/12/21 00:13:46;;;;;;;;;10.00;10.00;;;;;1.85;64.38;99937.13;4962021;28;9634;-70
2021/12/21 00:16:27;;;;;;;;;8.60;7.20;;;;;1.70;64.55;99936.47;5003111;28;8864;-72
2021/12/21 00:19:09;;;;;;;;;11.80;9.60;;;;;1.43;65.51;99946.47;4986524;28;8857;-72
2021/12/21 00:21:42;;;;;;;;;10.80;10.40;;;;;1.53;65.47;99939.22;4986147;28;8864;-70
2021/12/21 00:24:13;;;;;;;;;8.20;7.20;;;;;1.30;65.94;99942.50;5025408;28;8916;-70
2021/12/21 00:26:42;;;;;;;;;3.20;3.20;;;;;1.32;66.08;99944.34;5042054;28;8858;-71
2021/12/21 00:29:11;;;;;;;;;12.40;8.60;;;;;1.24;66.55;99952.53;5015707;28;8964;-70
2021/12/21 00:31:40;;;;;;;;;12.80;11.40;;;;;0.69;68.48;99956.09;5045344;28;8827;-70
2021/12/21 00:34:09;;;;;;;;;10.00;7.80;;;;;0.64;69.11;99961.00;5045683;28;8860;-70
2021/12/21 00:36:39;;;;;;;;;9.00;9.00;;;;;0.74;68.96;99954.63;5044294;28;8839;-69
2021/12/21 00:39:12;;;;;;;;;13.40;11.40;;;;;0.80;68.62;99952.31;5005369;28;8886;-70
2021/12/21 00:41:41;;;;;;;;;6.80;6.80;;;;;0.77;68.60;99955.59;5008069;28;8864;-69
2021/12/21 00:44:09;;;;;;;;;14.60;12.60;;;;;0.96;67.96;99953.88;5009435;28;8961;-69
2021/12/21 00:46:39;;;;;;;;;8.40;7.80;;;;;0.54;68.66;99964.81;5009335;28;8864;-71
2021/12/21 00:49:15;;;;;;;;;12.00;10.80;;;;;0.58;69.29;99964.16;4997487;28;8860;-71
2021/12/21 00:51:47;;;;;;;;;9.20;9.20;;;;;0.63;68.53;99982.34;4998891;28;8834;-71
2021/12/21 00:54:17;;;;;;;;;9.00;9.00;;;;;0.83;68.23;99972.97;5028169;28;8861;-70
2021/12/21 00:56:46;;;;;;;;;9.40;7.80;;;;;0.61;68.91;99983.09;4989422;28;8858;-70
2021/12/21 00:59:15;;;;;;;;;9.60;8.60;;;;;0.49;69.26;99978.25;4989411;28;8897;-69
2021/12/21 01:01:44;;;;;;;;;11.20;10.00;;;;;0.44;68.88;99990.00;4989467;28;8929;-70
2021/12/21 01:04:20;;;;;;;;;8.80;8.80;;;;;0.55;69.00;99988.81;4973459;28;8975;-71
2021/12/21 01:07:02;;;;;;;;;10.00;8.20;;;;;0.25;69.86;99999.38;4988847;28;8827;-70
2021/12/21 01:10:02;;;;;;;;;11.60;10.00;;;;;0.34;69.29;99994.69;4991908;28;8952;-70
2021/12/21 01:12:44;;;;;;;;;10.40;9.20;;;;;0.34;69.65;100007.53;5025515;28;8934;-70
2021/12/21 01:15:21;;;;;;;;;7.40;6.20;;;;;0.30;69.79;100007.28;5009062;28;8828;-69
2021/12/21 01:17:56;;;;;;;;;12.80;9.60;;;;;0.34;69.69;99999.81;5008432;28;8949;-70
2021/12/21 01:20:31;;;;;;;;;12.60;8.60;;;;;0.47;69.49;100001.25;5025201;28;9045;-69
2021/12/21 01:23:44;;;;;;;;;13.20;10.00;;;;;0.48;69.43;100000.47;5008955;28;8836;-70
2021/12/21 01:26:19;;;;;;;;;10.00;10.00;;;;;0.47;69.21;100002.94;5013084;28;8895;-70
2021/12/21 01:28:54;;;;;;;;;8.80;4.40;;;;;0.58;68.97;99999.22;5024801;28;8852;-70
2021/12/21 01:31:30;;;;;;;;;6.80;6.80;;;;;0.59;68.84;99995.84;5028332;28;8832;-69
2021/12/21 01:34:13;;;;;;;;;8.40;8.00;;;;;0.65;68.84;100001.25;5027737;28;8840;-68
2021/12/21 01:36:48;;;;;;;;;7.60;7.00;;;;;0.74;68.44;99991.41;5028068;28;8887;-70
2021/12/21 01:39:48;;;;;;;;;7.40;7.40;;;;;0.85;68.10;99999.63;5011664;28;8844;-69
2021/12/21 01:42:24;;;;;;;;;8.00;8.00;;;;;1.06;67.47;99996.22;5011726;28;8832;-70
2021/12/21 01:50:25;;;;;;;;;9.60;6.20;;;;;1.73;65.04;99995.72;5028096;28;8906;-69
2021/12/21 01:52:54;;;;;;;;;7.80;5.60;;;;;1.54;65.83;99996.63;5010788;28;8862;-68
2021/12/21 01:55:24;;;;;;;;;7.00;6.80;;;;;1.56;65.16;99990.75;5011459;28;8874;-70
2021/12/21 01:57:53;;;;;;;;;8.80;7.20;;;;;1.65;65.17;99991.97;5001789;28;8876;-70
2021/12/21 02:00:22;;;;;;;;;8.80;6.80;;;;;1.85;64.72;99996.25;4990714;28;9055;-69
2021/12/21 02:02:50;;;;;;;;;9.40;9.40;;;;;2.00;64.59;99992.53;4988372;28;8903;-70
2021/12/21 02:05:19;;;;;;;;;12.80;9.20;;;;;1.97;64.60;99997.53;4991001;28;8864;-70
2021/12/21 02:07:48;;;;;;;;;10.00;7.80;;;;;1.77;65.48;99987.31;4990630;28;8849;-69
2021/12/21 02:10:17;;;;;;;;;7.20;7.20;;;;;2.04;64.49;99987.59;5022097;28;8896;-68
2021/12/21 02:12:47;;;;;;;;;6.80;6.80;;;;;2.19;64.01;99981.31;4990808;28;8976;-70
2021/12/21 02:15:16;;;;;;;;;14.20;11.00;;;;;1.83;64.85;99987.56;4990551;28;8872;-69
2021/12/21 02:20:45;;;;;;;;;8.60;8.60;;;;;2.11;64.31;99983.56;5022028;28;8841;-71
2021/12/21 02:23:18;;;;;;;;;7.80;7.40;;;;;1.86;65.11;99987.72;4990140;28;9665;-70
2021/12/21 02:29:09;;;;;;;;;6.80;6.80;;;;;1.53;66.41;99992.31;5023748;28;8873;-70
2021/12/21 02:31:39;;;;;;;;;10.00;7.00;;;;;1.52;66.27;99998.28;4991079;28;8846;-69
2021/12/21 02:34:08;;;;;;;;;11.60;9.80;;;;;1.16;68.05;100001.84;5007275;28;9755;-69
2021/12/21 02:36:40;;;;;;;;;0.80;0.40;;;;;1.61;66.52;100005.47;5007301;28;8862;-68
2021/12/21 02:39:13;;;;;;;;;11.20;6.80;;;;;1.16;68.19;100012.13;5007286;28;8842;-69
2021/12/21 02:41:43;;;;;;;;;7.00;7.00;;;;;1.00;68.84;100008.81;5007182;28;8858;-68
2021/12/21 02:44:13;;;;;;;;;7.80;7.40;;;;;1.04;68.36;100010.69;5007133;28;8862;-70
2021/12/21 02:46:44;;;;;;;;;9.40;9.00;;;;;0.76;68.92;100020.59;5007014;28;8858;-70
2021/12/21 02:49:14;;;;;;;;;7.80;6.60;;;;;0.77;69.00;100017.22;5007303;28;8889;-69
2021/12/21 02:51:47;;;;;;;;;11.60;9.20;;;;;1.00;68.31;100022.50;5006673;28;9591;-69
2021/12/21 02:54:17;;;;;;;;;6.80;6.80;;;;;1.20;67.85;100018.28;5006905;28;8948;-70
2021/12/21 02:56:47;;;;;;;;;9.80;7.80;;;;;1.08;68.04;100010.06;5006897;28;8862;-70
2021/12/21 02:59:16;;;;;;;;;9.00;7.00;;;;;0.93;68.48;100026.50;5006919;28;8862;-69
2021/12/21 03:01:44;;;;;;;;;9.60;9.20;;;;;1.31;67.23;100022.22;4990394;28;8874;-70
2021/12/21 03:04:13;;;;;;;;;6.60;6.40;;;;;1.50;66.81;100020.47;5006776;28;8838;-70
2021/12/21 03:12:31;;;;;;;;;7.40;7.40;;;;;1.33;67.15;100017.16;4990487;28;8856;-71
2021/12/21 03:15:00;;;;;;;;;10.60;9.00;;;;;1.46;66.39;100026.28;4989421;28;9607;-70
2021/12/21 03:17:29;;;;;;;;;6.20;6.20;;;;;1.50;66.56;100026.47;4989383;28;9638;-71
2021/12/21 03:19:58;;;;;;;;;6.80;5.20;;;;;1.25;67.16;100028.75;5020803;28;8930;-68
2021/12/21 03:22:28;;;;;;;;;9.40;7.00;;;;;1.11;67.53;100029.03;4989768;28;8892;-70
2021/12/21 03:24:57;;;;;;;;;7.40;7.40;;;;;0.80;69.32;100028.44;5020391;28;8857;-70
2021/12/21 03:27:25;;;;;;;;;7.00;7.00;;;;;0.84;69.25;100026.09;4989515;28;9619;-70
2021/12/21 03:29:54;;;;;;;;;5.20;5.20;;;;;1.02;68.66;100026.06;4989447;28;9781;-71
2021/12/21 03:32:23;;;;;;;;;7.40;7.40;;;;;0.49;70.46;100032.13;5020514;28;8845;-70
2021/12/21 03:34:51;;;;;;;;;7.80;7.60;;;;;0.20;71.77;100034.19;4989494;28;8857;-71
2021/12/21 03:37:20;;;;;;;;;10.00;6.80;;;;;0.16;71.92;100040.84;4989097;28;8884;-70
2021/12/21 03:39:52;;;;;;;;;7.80;7.20;;;;;-0.07;72.87;100043.97;5002873;28;8887;-70
2021/12/21 03:42:23;;;;;;;;;7.80;7.80;;;;;-0.04;73.31;100042.44;4988929;28;8848;-70
2021/12/21 03:44:51;;;;;;;;;8.60;8.60;;;;;-0.26;74.29;100055.84;5020202;28;8998;-69
2021/12/21 03:47:22;;;;;;;;;7.60;7.60;;;;;-0.29;74.48;100047.13;4989078;28;8848;-72
2021/12/21 03:49:57;;;;;;;;;8.00;8.00;;;;;-0.35;74.09;100051.94;4989017;28;8888;-70
2021/12/21 03:52:28;;;;;;;;;8.80;8.80;;;;;-0.27;74.69;100060.88;5020552;28;8874;-69
2021/12/21 03:55:01;;;;;;;;;11.20;9.60;;;;;-0.35;74.15;100057.06;4988792;28;8922;-70
2021/12/21 03:57:31;;;;;;;;;6.80;5.60;;;;;-0.41;74.30;100057.63;4988801;28;8840;-70
2021/12/21 04:00:00;;;;;;;;;12.60;10.00;;;;;-0.48;75.72;100064.09;4970793;28;8852;-70
2021/12/21 04:02:29;;;;;;;;;3.00;3.00;;;;;-0.56;75.64;100064.53;4988780;28;8841;-70
2021/12/21 04:04:59;;;;;;;;;10.80;10.80;;;;;-0.61;76.09;100072.81;5002784;28;8871;-69
2021/12/21 04:07:29;;;;;;;;;12.00;9.40;;;;;-0.51;75.45;100068.19;5020199;28;8880;-71
2021/12/21 04:09:59;;;;;;;;;9.80;9.80;;;;;-0.59;76.00;100083.16;4988706;28;8906;-70
2021/12/21 04:12:28;;;;;;;;;7.00;7.00;;;;;-0.65;76.34;100095.63;4988769;28;8852;-69
2021/12/21 04:14:57;;;;;;;;;13.00;10.00;;;;;-0.60;76.12;100078.84;4988832;28;8856;-69
2021/12/21 04:17:26;;;;;;;;;11.40;10.40;;;;;-0.58;76.41;100084.94;4992699;28;9741;-70
2021/12/21 04:19:55;;;;;;;;;12.60;12.00;;;;;-0.58;75.56;100077.25;5043670;28;8870;-70
2021/12/21 04:22:23;;;;;;;;;12.80;10.80;;;;;-0.54;76.00;100096.22;5042620;28;8838;-70
2021/12/21 04:24:52;;;;;;;;;13.40;13.40;;;;;-0.48;75.83;100091.41;5010473;28;8939;-69
2021/12/21 04:27:22;;;;;;;;;15.40;12.40;;;;;-0.47;75.12;100086.38;5009661;28;8866;-70
2021/12/21 04:29:51;;;;;;;;;10.80;9.40;;;;;-0.43;75.00;100093.41;5011986;28;8881;-69
2021/12/21 04:32:19;;;;;;;;;10.40;10.40;;;;;-0.37;75.11;100094.53;5043677;28;8854;-70
2021/12/21 04:34:48;;;;;;;;;6.20;6.20;;;;;-0.47;75.80;100101.75;4999270;28;8848;-70
2021/12/21 04:37:18;;;;;;;;;9.40;6.00;;;;;-0.41;75.45;100099.50;5024033;28;8860;-70
2021/12/21 04:39:53;;;;;;;;;7.00;7.00;;;;;-0.49;75.44;100100.78;4992337;28;8868;-71
2021/12/21 04:42:24;;;;;;;;;8.60;7.00;;;;;-0.57;75.20;100099.47;5023856;28;8853;-70
2021/12/21 04:44:52;;;;;;;;;9.20;6.20;;;;;-0.53;75.12;100101.44;4992404;28;8884;-71
2021/12/21 04:47:21;;;;;;;;;9.20;7.00;;;;;-0.54;74.94;100109.91;4992118;28;8903;-71
2021/12/21 04:49:49;;;;;;;;;6.60;6.00;;;;;-0.49;75.05;100111.03;4992170;28;8864;-69
2021/12/21 04:52:18;;;;;;;;;7.20;6.40;;;;;-0.59;75.08;100116.44;4973877;28;8841;-70
2021/12/21 04:54:47;;;;;;;;;8.00;6.20;;;;;-0.46;75.22;100106.03;5023420;28;8852;-70
2021/12/21 04:57:16;;;;;;;;;7.80;7.00;;;;;-0.58;74.70;100118.22;4996782;28;8854;-71
2021/12/21 04:59:46;;;;;;;;;10.00;9.80;;;;;-0.60;75.00;100115.56;5011265;28;8868;-69
2021/12/21 05:02:14;;;;;;;;;6.80;6.80;;;;;-0.62;75.03;100124.00;5041696;28;9585;-71
2021/12/21 05:04:43;;;;;;;;;8.20;8.20;;;;;-0.55;74.77;100123.50;5011809;28;8826;-71
2021/12/21 05:07:15;;;;;;;;;7.60;7.40;;;;;-0.55;74.25;100123.50;5011240;28;9607;-70
2021/12/21 05:09:49;;;;;;;;;6.60;5.00;;;;;-0.62;74.94;100124.84;5024516;28;8997;-70
2021/12/21 05:12:18;;;;;;;;;4.40;4.40;;;;;-0.61;74.47;100125.72;5011139;28;8858;-69
2021/12/21 05:14:48;;;;;;;;;11.00;7.00;;;;;-0.63;74.81;100127.34;5011151;28;8854;-71
2021/12/21 05:17:17;;;;;;;;;6.00;6.00;;;;;-0.64;73.81;100140.94;4995205;28;8872;-70
2021/12/21 05:19:46;;;;;;;;;9.80;8.60;;;;;-0.66;74.73;100140.88;5005968;28;8911;-70
2021/12/21 05:22:15;;;;;;;;;6.00;6.00;;;;;-0.70;75.22;100151.75;4991467;28;8848;-70
2021/12/21 05:24:44;;;;;;;;;6.60;6.00;;;;;-0.72;75.25;100155.88;4991317;28;8953;-71
2021/12/21 05:27:13;;;;;;;;;3.00;3.00;;;;;-0.63;75.47;100158.06;5004102;28;8857;-70
2021/12/21 05:29:42;;;;;;;;;9.40;9.00;;;;;-0.62;74.66;100152.16;4991001;28;8868;-71
2021/12/21 05:32:12;;;;;;;;;8.60;6.80;;;;;-0.74;75.38;100157.47;4972929;28;8915;-70
2021/12/21 05:34:41;;;;;;;;;9.40;9.40;;;;;-0.77;75.44;100167.56;4956653;28;8884;-71
2021/12/21 05:37:09;;;;;;;;;9.20;8.20;;;;;-0.71;75.13;100167.91;4990947;28;8860;-70
2021/12/21 05:39:50;;;;;;;;;11.20;7.00;;;;;-0.69;74.81;100161.19;4991110;28;8938;-71
2021/12/21 05:42:19;;;;;;;;;10.40;7.20;;;;;-0.88;75.17;100169.53;4990638;28;9610;-69
2021/12/21 05:44:49;;;;;;;;;5.80;5.80;;;;;-0.77;75.11;100169.25;4991051;28;9100;-72
2021/12/21 05:47:20;;;;;;;;;8.00;7.00;;;;;-0.81;75.62;100174.19;5022159;28;8849;-70
2021/12/21 05:49:49;;;;;;;;;9.20;7.60;;;;;-0.81;75.41;100183.56;5007415;28;8874;-70
2021/12/21 05:52:17;;;;;;;;;8.60;8.60;;;;;-0.67;75.10;100180.06;4975560;28;8850;-71
2021/12/21 05:54:46;;;;;;;;;12.40;6.80;;;;;-0.71;75.57;100177.25;5007561;28;8861;-72
2021/12/21 05:57:15;;;;;;;;;10.40;9.00;;;;;-0.82;75.65;100176.66;5007906;28;8972;-73
2021/12/21 05:59:43;;;;;;;;;6.60;6.00;;;;;-0.73;75.08;100194.22;5007937;28;8973;-71
2021/12/21 06:02:12;;;;;;;;;10.00;10.00;;;;;-0.55;74.78;100184.09;5006990;28;8882;-72
2021/12/21 06:04:42;;;;;;;;;10.00;6.00;;;;;-0.68;74.85;100191.13;5007480;28;8846;-71
2021/12/21 06:07:11;;;;;;;;;8.60;8.00;;;;;-0.65;75.37;100193.84;5007362;28;9014;-70
2021/12/21 06:09:41;;;;;;;;;6.00;6.00;;;;;-0.62;74.78;100204.25;5007111;28;8892;-71
2021/12/21 06:12:17;;;;;;;;;9.20;9.00;;;;;-0.60;74.35;100212.91;5007267;28;8952;-70
2021/12/21 06:23:29;;;;;;;;;12.00;10.40;;;;;-0.57;74.51;100232.66;4948712;28;8885;-71
2021/12/21 06:26:00;;;;;;;;;9.60;9.00;;;;;-0.42;74.61;100233.53;4964408;28;9581;-70
2021/12/21 06:28:29;;;;;;;;;11.80;10.40;;;;;-0.43;73.90;100233.44;4948776;28;8858;-69
2021/12/21 06:30:58;;;;;;;;;11.80;11.80;;;;;-0.56;74.56;100238.69;4964619;28;8873;-72
2021/12/21 06:33:28;;;;;;;;;16.25;15.00;;;;;-0.55;75.26;100240.44;4964809;28;8984;-71
2021/12/21 06:35:58;;;;;;;;;10.80;9.40;;;;;-0.59;74.72;100247.06;4902386;28;8951;-70
2021/12/21 06:38:27;;;;;;;;;13.00;12.20;;;;;-0.57;74.96;100249.72;4967458;28;9018;-70
2021/12/21 06:40:56;;;;;;;;;6.80;5.20;;;;;-0.53;75.05;100250.00;4967439;28;8875;-70
2021/12/21 06:43:26;;;;;;;;;11.60;11.00;;;;;-0.62;74.49;100262.28;4967362;28;9716;-70
2021/12/21 06:46:02;;;;;;;;;12.80;10.00;;;;;-0.62;74.97;100259.72;4967518;28;8867;-70
2021/12/21 06:51:24;;;;;;;;;13.80;11.60;;;;;-0.69;75.52;100273.84;4957616;28;8853;-70
2021/12/21 06:53:56;;;;;;;;;18.00;15.00;;;;;-0.58;74.69;100271.03;4968701;28;8858;-72
2021/12/21 06:56:27;;;;;;;;;13.80;12.00;;;;;-0.53;74.31;100273.06;4989229;28;8864;-71
2021/12/21 06:58:56;;;;;;;;;7.00;7.00;;;;;-0.64;74.89;100279.25;5020766;28;8861;-71
2021/12/21 07:01:28;;;;;;;;;11.60;10.80;;;;;-0.43;74.62;100277.88;5020612;28;8968;-71
2021/12/21 07:03:59;;;;;;;;;10.80;10.80;;;;;-0.50;73.02;100280.88;4989296;28;8926;-71
2021/12/21 07:06:30;;;;;;;;;13.40;13.40;;;;;-0.43;73.51;100285.56;4986886;28;8865;-70
2021/12/21 07:09:05;;;;;;;;;10.00;10.00;;;;;-0.44;73.51;100282.91;4989266;28;8872;-71
2021/12/21 07:11:42;;;;;;;;;11.80;8.40;;;;;-0.25;73.16;100277.09;4989064;28;8849;-71
2021/12/21 07:19:45;;;;;;;;;10.60;9.40;;;;;-0.24;72.46;100291.69;5020648;28;8864;-72
2021/12/21 07:22:15;;;;;;;;;9.80;6.80;;;;;-0.25;73.08;100282.22;4989018;28;8869;-71
2021/12/21 07:24:45;;;;;;;;;13.20;11.20;;;;;-0.18;72.80;100283.47;5020284;28;8884;-71
2021/12/21 07:27:15;;;;;;;;;13.40;10.80;;;;;-0.13;72.75;100290.59;5021930;28;8888;-70
2021/12/21 07:29:44;;;;;;;;;16.80;15.60;;;;;-0.16;72.94;100292.13;4958190;28;8858;-70
2021/12/21 07:32:12;;;;;;;;;15.00;13.40;;;;;-0.09;72.07;100292.53;5022049;28;8874;-71
2021/12/21 07:34:41;;;;;;;;;9.00;8.60;;;;;-0.43;73.81;100302.63;4988952;28;9619;-72
2021/12/21 07:37:10;;;;;;;;;17.20;13.80;;;;;-0.43;73.80;100307.75;4972835;28;8984;-71
2021/12/21 07:39:40;;;;;;;;;12.60;9.80;;;;;-0.45;73.94;100312.78;5005495;28;9689;-73
2021/12/21 07:42:19;;;;;;;;;13.60;12.00;;;;;-0.58;74.03;100312.00;5005343;28;8850;-71
2021/12/21 07:44:48;;;;;;;;;8.60;7.80;;;;;-0.48;74.20;100315.16;5005299;28;8963;-71
2021/12/21 07:47:17;;;;;;;;;12.40;11.20;;;;;-0.45;73.63;100322.16;5005601;28;8861;-71
2021/12/21 07:49:46;;;;;;;;;12.50;12.50;;;;;-0.45;74.11;100325.59;5021912;28;8973;-69
2021/12/21 07:52:16;;;;;;;;;30.50;24.00;;;;;-0.35;74.03;100319.28;5005307;28;8949;-70
2021/12/21 07:54:46;;;;;;;;;13.80;12.40;;;;;-0.40;73.28;100315.56;5005575;28;8866;-71
2021/12/21 07:57:15;;;;;;;;;10.20;9.60;;;;;-0.41;73.53;100326.63;5001632;28;8865;-71
2021/12/21 07:59:44;;;;;;;;;16.20;15.40;;;;;-0.25;72.94;100330.94;4991171;28;8836;-72
2021/12/21 08:02:14;;;;;;;;;16.40;15.00;;;;;-0.31;73.37;100335.72;5005273;28;8922;-70
2021/12/21 08:04:44;;;;;;;;;12.40;12.40;;;;;-0.46;73.37;100344.28;4956704;28;8892;-70
2021/12/21 08:07:17;;;;;;;;;13.20;12.40;;;;;-0.50;73.31;100344.94;5004180;28;8852;-71
2021/12/21 08:09:51;;;;;;;;;15.60;12.00;;;;;-0.44;73.46;100339.25;5003519;28;10247;-70
2021/12/21 08:12:21;;;;;;;;;12.00;10.20;;;;;-0.22;72.84;100334.53;4986493;28;8844;-71
2021/12/21 08:14:52;;;;;;;;;16.00;15.60;;;;;0.05;71.75;100330.84;4986221;28;8864;-70
2021/12/21 08:17:21;;;;;;;;;21.00;13.40;;;;;0.34;70.68;100337.53;5002098;28;9614;-72
2021/12/21 08:19:50;;;;;;;;;11.80;9.20;;;;;0.49;69.65;100335.78;5001718;28;8870;-73
2021/12/21 08:22:19;;;;;;;;;11.20;10.40;;;;;0.88;68.97;100345.47;4938517;28;8941;-72
2021/12/21 08:24:49;;;;;;;;;10.20;9.80;;;;;0.66;67.99;100346.03;4985710;28;9626;-72
2021/12/21 08:27:17;;;;;;;;;14.40;14.40;;;;;0.31;69.54;100352.78;4985968;28;8951;-70
2021/12/21 08:29:46;;;;;;;;;12.40;12.40;;;;;0.64;68.98;100357.91;5002306;28;8884;-72
2021/12/21 08:32:15;;;;;;;;;16.40;15.60;;;;;0.87;68.30;100356.53;4953329;28;8872;-72
2021/12/21 08:34:44;;;;;;;;;12.20;9.20;;;;;0.98;67.64;100355.38;4995215;28;8854;-70
2021/12/21 08:37:13;;;;;;;;;17.40;12.80;;;;;1.07;67.41;100360.13;5006914;28;8846;-71
2021/12/21 08:39:41;;;;;;;;;15.60;15.40;;;;;1.25;66.66;100365.28;5007890;28;8870;-71
2021/12/21 08:42:14;;;;;;;;;14.40;13.40;;;;;1.33;66.48;100358.84;5005986;28;8878;-70
2021/12/21 08:44:46;;;;;;;;;18.20;14.40;;;;;0.70;68.08;100368.47;4988359;28;8865;-71
2021/12/21 08:47:16;;;;;;;;;18.00;14.60;;;;;1.03;67.94;100368.47;5001882;28;8923;-71
2021/12/21 08:49:47;;;;;;;;;17.60;17.20;;;;;1.31;66.54;100360.47;5002832;28;8884;-72
2021/12/21 08:52:15;;;;;;;;;16.20;15.80;;;;;1.59;65.55;100373.00;4987776;28;9015;-72
2021/12/21 08:54:44;;;;;;;;;16.80;16.00;;;;;1.39;66.21;100379.72;5019561;28;8852;-71
2021/12/21 08:57:15;;;;;;;;;16.40;12.00;;;;;0.67;68.41;100379.47;4988176;28;8923;-70
2021/12/21 08:59:46;;;;;;;;;18.20;17.60;;;;;0.88;67.64;100377.16;5019229;28;8852;-72
2021/12/21 09:02:15;;;;;;;;;18.20;16.20;;;;;0.69;68.33;100379.56;5020781;28;8988;-71
2021/12/21 09:04:43;;;;;;;;;21.00;18.60;;;;;0.66;68.07;100375.16;4991678;28;8991;-71
2021/12/21 09:07:12;;;;;;;;;18.40;15.80;;;;;0.42;69.46;100377.31;4991151;28;8868;-70
2021/12/21 09:09:41;;;;;;;;;19.40;18.00;;;;;0.52;69.24;100384.69;4991296;28;8999;-70
2021/12/21 09:12:10;;;;;;;;;22.80;21.00;;;;;0.57;69.61;100390.94;5022476;28;9607;-72
2021/12/21 09:14:40;;;;;;;;;15.40;14.80;;;;;0.77;69.00;100396.25;5023260;28;8841;-70
2021/12/21 09:17:09;;;;;;;;;18.80;16.40;;;;;0.44;69.00;100391.09;4991114;28;8857;-71
2021/12/21 09:19:37;;;;;;;;;18.00;16.20;;;;;0.28;69.80;100384.25;5022339;28;8849;-70
2021/12/21 09:22:06;;;;;;;;;19.00;18.00;;;;;0.16;70.88;100386.16;4990918;28;9042;-72
2021/12/21 09:24:35;;;;;;;;;21.80;20.60;;;;;0.27;70.59;100387.63;4991099;28;8881;-71
2021/12/21 09:27:04;;;;;;;;;17.60;15.80;;;;;0.48;69.86;100387.91;5022208;28;8955;-72
2021/12/21 09:29:32;;;;;;;;;20.40;19.40;;;;;0.53;69.73;100389.03;4990795;28;8856;-73
2021/12/21 09:32:02;;;;;;;;;15.80;13.00;;;;;0.51;69.88;100385.50;4990336;28;8907;-72
2021/12/21 09:34:31;;;;;;;;;20.80;17.80;;;;;0.43;69.86;100386.75;4990649;28;8860;-71
2021/12/21 09:37:00;;;;;;;;;21.40;14.00;;;;;0.56;69.75;100393.44;4990509;28;8871;-72
2021/12/21 09:39:29;;;;;;;;;22.40;18.60;;;;;0.79;69.00;100392.06;5005276;28;8876;-71
2021/12/21 09:41:57;;;;;;;;;15.80;15.40;;;;;0.88;68.40;100382.28;4990324;28;9781;-71
2021/12/21 09:44:26;;;;;;;;;20.20;18.00;;;;;1.39;67.37;100381.41;5021847;28;8872;-71
2021/12/21 09:46:55;;;;;;;;;18.00;16.80;;;;;1.53;66.09;100383.84;4988481;28;8860;-70
2021/12/21 09:49:25;;;;;;;;;19.20;19.20;;;;;1.87;64.97;100382.94;4988575;28;8865;-72
2021/12/21 09:51:53;;;;;;;;;21.20;18.60;;;;;2.24;64.14;100373.47;5021778;28;8995;-72
2021/12/21 09:54:23;;;;;;;;;22.20;18.80;;;;;2.53;62.50;100364.50;4990334;28;8876;-72
2021/12/21 09:56:51;;;;;;;;;24.80;23.20;;;;;2.84;62.21;100364.16;5022143;28;8967;-73
2021/12/21 09:59:20;;;;;;;;;17.60;15.20;;;;;3.17;61.55;100365.53;4990145;28;8888;-71
2021/12/21 10:01:49;;;;;;;;;24.80;19.60;;;;;3.46;60.45;100359.91;4990147;28;8853;-70
2021/12/21 10:04:18;;;;;;;;;18.60;18.60;;;;;3.74;59.56;100358.44;5021837;28;8861;-70
2021/12/21 10:06:50;;;;;;;;;27.80;25.00;;;;;2.98;59.96;100359.59;5003895;28;9014;-70
2021/12/21 10:09:21;;;;;;;;;20.60;18.60;;;;;2.40;61.68;100373.38;5004113;28;8857;-71
2021/12/21 10:12:06;;;;;;;;;21.80;21.80;;;;;2.46;62.25;100368.50;4989838;28;8934;-72
2021/12/21 10:14:34;;;;;;;;;20.60;17.60;;;;;2.68;62.27;100362.59;5020692;28;8888;-71
2021/12/21 10:17:06;;;;;;;;;18.60;18.00;;;;;3.09;61.58;100352.34;5021573;28;8892;-71
2021/12/21 10:19:36;;;;;;;;;23.80;22.60;;;;;2.62;61.05;100359.75;5021520;28;9003;-69
2021/12/21 10:22:11;;;;;;;;;16.80;15.80;;;;;2.22;62.29;100359.66;4940396;28;8907;-71
2021/12/21 10:24:47;;;;;;;;;25.40;19.00;;;;;2.58;61.70;100362.13;4987391;28;9014;-71
2021/12/21 10:27:18;;;;;;;;;22.00;22.00;;;;;2.89;60.82;100359.19;5021321;28;8853;-71
2021/12/21 10:29:50;;;;;;;;;20.00;20.00;;;;;2.75;60.23;100345.72;5020783;28;9004;-73
2021/12/21 10:32:21;;;;;;;;;24.40;23.00;;;;;2.49;61.74;100354.88;4989706;28;8857;-71
2021/12/21 10:34:52;;;;;;;;;18.60;16.20;;;;;2.91;60.91;100353.31;4971096;28;8872;-71
2021/12/21 10:37:27;;;;;;;;;19.00;16.60;;;;;3.24;60.02;100352.09;4987338;28;8899;-71
2021/12/21 10:40:11;;;;;;;;;12.60;10.00;;;;;3.24;58.64;100359.84;5003626;28;8891;-70
2021/12/21 10:42:49;;;;;;;;;21.60;20.80;;;;;3.46;57.81;100354.75;4971156;28;8902;-72
2021/12/21 10:45:19;;;;;;;;;22.40;20.80;;;;;3.66;58.64;100350.41;4989151;28;8872;-71
2021/12/21 10:47:49;;;;;;;;;24.80;23.60;;;;;3.42;57.87;100347.72;4989092;28;8853;-71
2021/12/21 10:50:18;;;;;;;;;19.00;17.40;;;;;3.13;59.14;100343.91;4989430;28;8895;-70
2021/12/21 10:52:54;;;;;;;;;19.60;16.80;;;;;3.25;58.53;100347.03;4971064;28;9730;-71
2021/12/21 10:55:28;;;;;;;;;30.40;24.60;;;;;2.82;59.60;100355.50;4989209;28;8861;-70
2021/12/21 10:58:06;;;;;;;;;19.60;19.20;;;;;2.93;59.35;100351.69;4989327;28;8891;-71
2021/12/21 11:00:38;;;;;;;;;20.80;20.40;;;;;3.02;59.30;100353.75;4989256;28;8911;-72
2021/12/21 11:03:07;;;;;;;;;18.80;14.00;;;;;3.03;59.33;100346.94;4988894;28;9634;-71
2021/12/21 11:05:37;;;;;;;;;19.40;16.60;;;;;3.16;59.01;100344.06;5020412;28;8965;-71
2021/12/21 11:08:16;;;;;;;;;22.80;19.80;;;;;3.44;58.86;100338.34;5020312;28;8966;-72
2021/12/21 11:10:51;;;;;;;;;19.40;17.40;;;;;3.49;59.04;100341.09;4988827;28;8837;-71
2021/12/21 11:13:20;;;;;;;;;21.20;20.00;;;;;3.03;58.97;100342.66;4988928;28;8873;-71
2021/12/21 11:15:53;;;;;;;;;15.80;14.60;;;;;3.17;59.62;100345.81;5039709;28;8830;-72
2021/12/21 11:18:24;;;;;;;;;23.60;23.60;;;;;2.70;60.32;100345.53;5022466;28;8866;-71
2021/12/21 11:20:56;;;;;;;;;26.20;20.80;;;;;2.44;61.11;100353.78;5040178;28;8872;-71
2021/12/21 11:23:27;;;;;;;;;19.60;18.60;;;;;2.82;60.38;100342.63;5006910;28;8858;-71
2021/12/21 11:25:56;;;;;;;;;23.40;18.60;;;;;3.06;59.49;100339.31;5020312;28;8858;-73
2021/12/21 11:28:35;;;;;;;;;18.00;13.20;;;;;3.16;58.37;100333.75;5001920;28;8868;-71
2021/12/21 11:31:07;;;;;;;;;20.60;20.60;;;;;3.47;58.28;100337.59;4988608;28;8848;-72
2021/12/21 11:33:41;;;;;;;;;17.40;16.60;;;;;3.73;57.49;100332.59;4988187;28;10043;-71
2021/12/21 11:39:02;;;;;;;;;17.60;15.20;;;;;2.08;58.85;100335.84;5019871;28;8876;-71
2021/12/21 11:41:33;;;;;;;;;22.80;21.80;;;;;1.65;61.51;100346.72;5012871;28;8862;-72
2021/12/21 11:44:09;;;;;;;;;17.20;17.20;;;;;1.73;61.12;100345.38;5004945;28;8969;-71
2021/12/21 11:46:51;;;;;;;;;48.00;44.50;;;;;1.51;61.90;100344.34;5021723;28;9057;-70
2021/12/21 11:49:26;;;;;;;;;29.80;23.80;;;;;1.84;60.85;100335.59;4989021;28;8978;-72
2021/12/21 11:52:06;;;;;;;;;22.00;21.20;;;;;1.51;61.73;100328.03;5004960;28;8886;-70
2021/12/21 11:54:46;;;;;;;;;18.80;17.20;;;;;1.22;61.94;100327.50;5005556;28;8887;-71
2021/12/21 11:57:15;;;;;;;;;6.00;6.00;;;;;1.19;62.57;100329.03;5005011;28;8844;-71
2021/12/21 11:59:43;;;;;;;;;22.20;20.40;;;;;1.05;62.94;100326.66;5005230;28;8859;-72
2021/12/21 12:02:12;;;;;;;;;20.75;18.50;;;;;0.84;63.90;100336.72;5004979;28;8863;-72
2021/12/21 12:04:41;;;;;;;;;24.50;23.50;;;;;0.96;64.23;100329.66;5005723;28;8836;-72
2021/12/21 12:07:18;;;;;;;;;23.60;23.60;;;;;1.42;63.03;100325.91;5021827;28;8863;-71
2021/12/21 12:10:08;;;;;;;;;29.50;27.75;;;;;1.12;63.91;100333.00;5005414;28;9706;-72
2021/12/21 12:12:36;;;;;;;;;33.80;22.60;;;;;1.67;63.18;100329.66;5027700;28;8881;-73
2021/12/21 12:15:09;;;;;;;;;28.60;27.00;;;;;1.95;61.28;100337.00;5008038;28;8843;-72
2021/12/21 12:17:48;;;;;;;;;35.50;30.25;;;;;1.87;61.74;100334.06;5007578;28;8905;-71
2021/12/21 12:20:18;;;;;;;;;27.80;23.80;;;;;1.54;62.87;100328.19;5006298;28;9678;-72
2021/12/21 12:22:47;;;;;;;;;26.20;22.00;;;;;1.68;62.51;100331.41;4996292;28;8849;-72
2021/12/21 12:25:21;;;;;;;;;22.25;21.75;;;;;1.88;62.35;100330.66;5019613;28;8907;-73